Карточка аэропорта UAKK

Внимание!
Информация на этой странице в стадии наполнения.
Если вы не увидели какой-то информации, или заметили неточность - пожалуйста сообщите нам!
Спасибо!
Команда RU-STAFF
Название аэропортаКараганда
Название аэропорта (англ.)Karaganda
Превышение1768 ft. (538.9 m.)
Координаты49°40.302', 73°20.118'
Высота перехода10000
Эшелон переходаby ATC
Коды ответчика0630-0637, 7220-7227
Зона ОрВДНур-Султан РПИ (UACN)
Данные METARUAKK 272130Z 25004MPS 9999 SCT012 BKN023CB 06/04 Q1011 NOSIG RMK QFE712/0949
Проноз погоды (TAF)UAKK 271705Z 2718/2818 28006MPS 9999 SCT020CB BKN100 TX08/2718Z TN03/2724Z TEMPO 2718/2722 28009MPS 5000 -SHRA SCT011 BKN015CB BECMG 2722/2724 31005MPS TEMPO 2722/2806 32008MPS 3100 -SHRASN BKN005 BKN015CB TEMPO 2806/2815 32008MPS 5000 -SHRA BKN015CB
NOTAMshow/hide NOTAM
AWOS   TABLE

Информация о ВПП

ВПП Длина ВПП (м.) Покрытие Курс ВПП Частота ILS
053601Железобетон50109.9
233601Железобетон230111.7

Диспетчерские позиции




Спутниковое изображение